createdAt,value
2023-01-05T00:01:44.997Z,97572.03
2023-01-05T00:04:51.950Z,97587.06
2023-01-05T00:07:57.949Z,97576.00
2023-01-05T00:11:25.708Z,97573.38
2023-01-05T00:14:47.438Z,97570.75
2023-01-05T00:18:06.549Z,97569.72
2023-01-05T00:21:30.793Z,97569.22
2023-01-05T00:24:37.604Z,97574.66
2023-01-05T00:27:50.852Z,97559.44
2023-01-05T00:30:57.623Z,97554.97
2023-01-05T00:34:03.702Z,97553.13
2023-01-05T00:37:10.579Z,97536.41
2023-01-05T00:40:20.191Z,97534.41
2023-01-05T00:43:29.738Z,97546.97
2023-01-05T00:46:35.811Z,97529.09
2023-01-05T00:49:43.460Z,97533.53
2023-01-05T00:52:50.706Z,97523.59
2023-01-05T00:56:01.493Z,97535.16
2023-01-05T00:59:13.560Z,97538.63
2023-01-05T01:02:20.788Z,97530.47
2023-01-05T01:05:27.063Z,97537.91
2023-01-05T01:08:34.041Z,97526.00
2023-01-05T01:11:41.044Z,97523.50
2023-01-05T01:14:53.218Z,97518.22
2023-01-05T01:17:59.273Z,97512.88
2023-01-05T01:21:07.132Z,97500.78
2023-01-05T01:24:21.138Z,97514.56
2023-01-05T01:27:28.130Z,97501.34
2023-01-05T01:30:36.780Z,97483.41
2023-01-05T01:33:44.730Z,97488.38
2023-01-05T01:36:51.258Z,97480.06
2023-01-05T01:40:02.652Z,97473.00
2023-01-05T01:43:17.165Z,97473.94
2023-01-05T01:46:29.110Z,97460.09
2023-01-05T01:49:35.647Z,97443.69
2023-01-05T01:52:50.225Z,97455.41
2023-01-05T01:56:00.934Z,97450.50
2023-01-05T01:59:08.855Z,97445.63
2023-01-05T02:02:18.794Z,97449.97
2023-01-05T02:05:32.710Z,97459.13
2023-01-05T02:08:39.052Z,97454.56
2023-01-05T02:12:05.954Z,97444.69
2023-01-05T02:15:27.963Z,97434.53
2023-01-05T02:19:10.771Z,97425.78
2023-01-05T02:23:00.045Z,97427.31
2023-01-05T02:26:59.800Z,97425.41
2023-01-05T02:30:59.870Z,97423.50
2023-01-05T02:34:32.449Z,97412.97
2023-01-05T02:37:50.496Z,97404.38
2023-01-05T02:41:10.782Z,97387.41
2023-01-05T02:44:21.055Z,97410.53
2023-01-05T02:47:45.495Z,97389.06
2023-01-05T02:51:04.025Z,97375.53
2023-01-05T02:54:20.835Z,97387.16
2023-01-05T02:57:49.544Z,97376.72
2023-01-05T03:01:09.360Z,97371.25
2023-01-05T03:04:26.456Z,97374.66
2023-01-05T03:07:43.657Z,97366.16
2023-01-05T03:11:18.924Z,97362.31
2023-01-05T03:14:37.333Z,97369.91
2023-01-05T03:17:50.565Z,97351.16
2023-01-05T03:21:00.165Z,97360.00
2023-01-05T03:24:22.143Z,97353.25
2023-01-05T03:27:47.725Z,97363.38
2023-01-05T03:31:19.073Z,97345.56
2023-01-05T03:34:52.148Z,97355.16
2023-01-05T03:38:18.130Z,97344.22
2023-01-05T03:41:30.780Z,97348.59
2023-01-05T03:44:39.379Z,97353.72
2023-01-05T03:47:49.607Z,97349.50
2023-01-05T03:51:01.042Z,97349.50
2023-01-05T03:54:08.781Z,97338.59
2023-01-05T03:57:18.275Z,97349.28
2023-01-05T04:00:25.440Z,97344.66
2023-01-05T04:03:41.068Z,97348.38
2023-01-05T04:06:48.921Z,97340.06
2023-01-05T04:09:55.500Z,97346.81
2023-01-05T04:13:05.147Z,97334.59
2023-01-05T04:16:13.310Z,97330.53
2023-01-05T04:19:21.727Z,97332.91
2023-01-05T04:22:31.038Z,97334.59
2023-01-05T04:25:38.161Z,97328.81
2023-01-05T04:28:57.542Z,97323.97
2023-01-05T04:32:05.655Z,97319.25
2023-01-05T04:35:12.811Z,97324.25
2023-01-05T04:38:22.139Z,97323.16
2023-01-05T04:41:28.689Z,97314.28
2023-01-05T04:44:38.664Z,97330.25
2023-01-05T04:47:46.084Z,97315.91
2023-01-05T04:50:58.774Z,97322.97
2023-01-05T04:54:11.845Z,97312.38
2023-01-05T04:57:20.627Z,97324.31
2023-01-05T05:00:33.596Z,97319.00
2023-01-05T05:03:44.466Z,97301.13
2023-01-05T05:06:55.341Z,97283.81
2023-01-05T05:10:05.972Z,97308.06
2023-01-05T05:13:12.718Z,97313.19
2023-01-05T05:16:22.277Z,97319.94
2023-01-05T05:19:29.245Z,97314.00
2023-01-05T05:22:36.195Z,97314.38
2023-01-05T05:25:42.477Z,97303.63
2023-01-05T05:28:50.156Z,97302.81
2023-01-05T05:31:58.777Z,97320.69
2023-01-05T05:35:05.659Z,97325.31
2023-01-05T05:38:11.707Z,97313.94
2023-01-05T05:41:18.791Z,97315.31
2023-01-05T05:44:24.857Z,97322.59
2023-01-05T05:47:34.320Z,97311.19
2023-01-05T05:50:40.372Z,97322.88
2023-01-05T05:53:47.303Z,97318.41
2023-01-05T05:56:53.329Z,97320.53
2023-01-05T06:00:00.186Z,97286.94
2023-01-05T06:03:08.933Z,97303.91
2023-01-05T06:06:15.967Z,97296.84
2023-01-05T06:09:22.004Z,97290.69
2023-01-05T06:12:29.065Z,97293.09
2023-01-05T06:15:35.621Z,97300.75
2023-01-05T06:18:45.363Z,97293.91
2023-01-05T06:21:51.541Z,97292.06
2023-01-05T06:24:58.550Z,97287.97
2023-01-05T06:28:05.222Z,97301.06
2023-01-05T06:31:12.796Z,97298.56
2023-01-05T06:34:21.655Z,97304.94
2023-01-05T06:37:28.711Z,97307.06
2023-01-05T06:40:34.894Z,97319.50
2023-01-05T06:43:41.900Z,97335.47
2023-01-05T06:46:48.165Z,97343.88
2023-01-05T06:49:57.662Z,97347.47
2023-01-05T06:53:03.949Z,97363.94
2023-01-05T06:56:11.562Z,97379.81
2023-01-05T06:59:18.059Z,97396.63
2023-01-05T07:02:25.001Z,97424.38
2023-01-05T07:05:34.384Z,97417.13
2023-01-05T07:08:41.417Z,97421.91
2023-01-05T07:11:48.158Z,97423.81
2023-01-05T07:14:57.718Z,97406.88
2023-01-05T07:18:04.053Z,97415.03
2023-01-05T07:21:14.318Z,97407.09
2023-01-05T07:24:20.489Z,97416.28
2023-01-05T07:27:27.596Z,97408.03
2023-01-05T07:30:33.715Z,97435.38
2023-01-05T07:33:40.950Z,97434.94
2023-01-05T07:36:50.116Z,97439.25
2023-01-05T07:39:57.111Z,97437.00
2023-01-05T07:43:03.258Z,97415.72
2023-01-05T07:46:10.292Z,97403.19
2023-01-05T07:49:16.628Z,97396.94
2023-01-05T07:52:26.235Z,97402.19
2023-01-05T07:55:32.433Z,97401.38
2023-01-05T07:58:39.345Z,97380.06
2023-01-05T08:01:45.581Z,97411.44
2023-01-05T08:04:52.617Z,97401.13
2023-01-05T08:08:01.309Z,97407.59
2023-01-05T08:11:11.590Z,97417.63
2023-01-05T08:14:17.824Z,97417.47
2023-01-05T08:17:24.855Z,97421.81
2023-01-05T08:20:30.871Z,97417.84
2023-01-05T08:23:42.347Z,97413.81
2023-01-05T08:26:48.570Z,97421.13
2023-01-05T08:29:55.702Z,97411.03
2023-01-05T08:33:02.231Z,97404.72
2023-01-05T08:36:13.882Z,97396.13
2023-01-05T08:39:22.656Z,97404.34
2023-01-05T08:42:29.802Z,97394.59
2023-01-05T08:45:36.881Z,97403.56
2023-01-05T08:48:43.834Z,97409.03
2023-01-05T08:51:50.035Z,97407.28
2023-01-05T08:54:59.664Z,97414.41
2023-01-05T08:58:06.739Z,97416.31
2023-01-05T09:01:17.392Z,97419.97
2023-01-05T09:04:23.632Z,97421.19
2023-01-05T09:07:30.861Z,97414.81
2023-01-05T09:10:39.737Z,97422.22
2023-01-05T09:13:51.690Z,97415.81
2023-01-05T09:17:06.868Z,97419.59
2023-01-05T09:20:15.030Z,97434.59
2023-01-05T09:23:21.276Z,97430.03
2023-01-05T09:26:31.338Z,97429.38
2023-01-05T09:29:37.548Z,97430.47
2023-01-05T09:32:44.735Z,97440.88
2023-01-05T09:35:58.122Z,97430.06
2023-01-05T09:39:06.355Z,97428.88
2023-01-05T09:42:22.775Z,97419.19
2023-01-05T09:45:31.473Z,97428.06
2023-01-05T09:48:45.664Z,97425.59
2023-01-05T09:52:02.416Z,97417.81
2023-01-05T09:55:19.315Z,97425.78
2023-01-05T09:58:39.541Z,97422.63
2023-01-05T10:01:48.584Z,97415.97
2023-01-05T10:04:58.373Z,97424.19
2023-01-05T10:08:10.623Z,97414.47
2023-01-05T10:11:36.864Z,97428.44
2023-01-05T10:14:51.737Z,97418.22
2023-01-05T10:17:59.109Z,97410.56
2023-01-05T10:21:24.132Z,97415.75
2023-01-05T10:24:50.568Z,97409.41
2023-01-05T10:28:21.509Z,97403.56
2023-01-05T10:31:49.096Z,97403.91
2023-01-05T10:35:02.853Z,97403.28
2023-01-05T10:38:34.767Z,97401.38
2023-01-05T10:42:01.465Z,97395.94
2023-01-05T10:45:14.854Z,97391.88
2023-01-05T10:48:33.716Z,97390.94
2023-01-05T10:51:40.786Z,97399.88
2023-01-05T10:54:51.850Z,97398.53
2023-01-05T10:57:58.704Z,97404.22
2023-01-05T11:01:09.571Z,97389.84
2023-01-05T11:04:33.406Z,97375.16
2023-01-05T11:07:54.338Z,97384.31
2023-01-05T11:11:05.205Z,97399.44
2023-01-05T11:14:19.941Z,97404.81
2023-01-05T11:17:32.162Z,97398.78
2023-01-05T11:20:40.881Z,97397.78
2023-01-05T11:23:51.958Z,97389.09
2023-01-05T11:27:01.878Z,97387.84
2023-01-05T11:30:25.727Z,97382.94
2023-01-05T11:33:39.874Z,97389.47
2023-01-05T11:37:00.191Z,97380.22
2023-01-05T11:40:21.973Z,97389.25
2023-01-05T11:43:35.302Z,97388.03
2023-01-05T11:46:47.640Z,97383.44
2023-01-05T11:50:09.503Z,97375.44
2023-01-05T11:53:37.367Z,97398.47
2023-01-05T11:56:44.440Z,97394.22
2023-01-05T11:59:51.442Z,97392.78
2023-01-05T12:03:34.934Z,97391.13
2023-01-05T12:07:15.603Z,97400.47
2023-01-05T12:10:51.136Z,97396.84
2023-01-05T12:14:28.603Z,97392.81
2023-01-05T12:17:58.175Z,97395.81
2023-01-05T12:21:19.879Z,97391.50
2023-01-05T12:25:02.536Z,97387.03
2023-01-05T12:29:30.137Z,97390.88
2023-01-05T12:36:40.093Z,97388.50
2023-01-05T12:40:26.555Z,97389.81
2023-01-05T12:43:55.611Z,97381.19
2023-01-05T12:47:46.353Z,97391.16
2023-01-05T12:51:06.049Z,97399.88
2023-01-05T12:54:32.625Z,97385.03
2023-01-05T12:57:49.006Z,97394.97
2023-01-05T13:01:03.785Z,97405.69
2023-01-05T13:04:41.351Z,97387.94
2023-01-05T13:07:59.285Z,97394.03
2023-01-05T13:11:18.047Z,97398.41
2023-01-05T13:14:33.473Z,97399.00
2023-01-05T13:17:50.328Z,97409.50
2023-01-05T13:21:01.585Z,97417.69
2023-01-05T13:24:21.371Z,97408.69
2023-01-05T13:27:29.996Z,97416.41
2023-01-05T13:30:53.378Z,97418.25
2023-01-05T13:35:00.790Z,97418.13
2023-01-05T13:38:58.777Z,97410.44
2023-01-05T13:42:46.473Z,97427.34
2023-01-05T13:46:31.851Z,97419.47
2023-01-05T13:50:26.729Z,97440.34
2023-01-05T13:53:38.719Z,97447.09
2023-01-05T13:56:46.841Z,97448.19
2023-01-05T14:00:06.378Z,97444.63
2023-01-05T14:03:33.123Z,97449.13
2023-01-05T14:06:51.352Z,97478.09
2023-01-05T14:10:03.438Z,97489.53
2023-01-05T14:13:44.196Z,97496.72
2023-01-05T14:16:57.505Z,97482.25
2023-01-05T14:20:03.631Z,97497.50
2023-01-05T14:24:00.090Z,97500.50
2023-01-05T14:27:13.746Z,97490.59
2023-01-05T14:30:27.750Z,97490.63
2023-01-05T14:33:34.048Z,97488.44
2023-01-05T14:36:45.996Z,97484.47
2023-01-05T14:40:04.134Z,97491.53
2023-01-05T14:43:33.743Z,97481.69
2023-01-05T14:46:56.288Z,97486.19
2023-01-05T14:50:06.582Z,97481.66
2023-01-05T14:53:47.787Z,97497.69
2023-01-05T14:57:39.799Z,97480.59
2023-01-05T15:00:59.118Z,97463.59
2023-01-05T15:04:17.068Z,97511.88
2023-01-05T15:07:46.163Z,97491.19
2023-01-05T15:11:31.699Z,97497.78
2023-01-05T15:15:22.447Z,97488.09
2023-01-05T15:19:13.315Z,97498.41
2023-01-05T15:22:59.495Z,97501.34
2023-01-05T15:26:37.097Z,97505.38
2023-01-05T15:30:45.362Z,97502.06
2023-01-05T15:34:07.780Z,97513.81
2023-01-05T15:37:23.512Z,97523.38
2023-01-05T15:40:33.857Z,97512.34
2023-01-05T15:43:44.895Z,97532.31
2023-01-05T15:46:54.753Z,97530.13
2023-01-05T15:50:04.554Z,97535.41
2023-01-05T15:53:29.860Z,97540.84
2023-01-05T15:56:41.487Z,97533.06
2023-01-05T15:59:52.446Z,97550.47
2023-01-05T16:03:01.531Z,97556.91
2023-01-05T16:06:18.127Z,97551.19
2023-01-05T16:09:31.325Z,97559.50
2023-01-05T16:12:39.446Z,97556.78
2023-01-05T16:15:51.072Z,97545.59
2023-01-05T16:19:10.475Z,97562.75
2023-01-05T16:22:24.446Z,97565.41
2023-01-05T16:25:35.907Z,97552.41
2023-01-05T16:28:44.321Z,97555.19
2023-01-05T16:31:58.289Z,97565.81
2023-01-05T16:35:36.293Z,97573.09
2023-01-05T16:38:44.499Z,97573.91
2023-01-05T16:42:02.996Z,97598.84
2023-01-05T16:45:25.480Z,97594.81
2023-01-05T16:48:50.957Z,97632.34
2023-01-05T16:52:01.885Z,97641.81
2023-01-05T16:55:31.457Z,97656.88
2023-01-05T16:58:41.345Z,97660.53
2023-01-05T17:01:48.424Z,97665.00
2023-01-05T17:04:55.263Z,97655.75
2023-01-05T17:08:19.772Z,97656.75
2023-01-05T17:11:30.068Z,97659.38
2023-01-05T17:14:36.199Z,97665.63
2023-01-05T17:17:43.072Z,97666.97
2023-01-05T17:20:49.965Z,97672.28
2023-01-05T17:24:03.527Z,97667.66
2023-01-05T17:27:09.648Z,97670.28
2023-01-05T17:30:24.703Z,97683.84
2023-01-05T17:33:30.993Z,97699.53
2023-01-05T17:36:39.634Z,97699.38
2023-01-05T17:39:48.603Z,97706.66
2023-01-05T17:42:55.555Z,97706.19
2023-01-05T17:46:02.102Z,97718.41
2023-01-05T17:49:09.668Z,97712.94
2023-01-05T17:52:15.626Z,97725.84
2023-01-05T17:55:26.840Z,97725.84
2023-01-05T17:58:32.988Z,97732.13
2023-01-05T18:01:40.158Z,97730.47
2023-01-05T18:04:46.381Z,97735.75
2023-01-05T18:07:53.734Z,97730.66
2023-01-05T18:11:05.462Z,97752.63
2023-01-05T18:14:12.332Z,97740.56
2023-01-05T18:17:18.730Z,97744.03
2023-01-05T18:20:25.677Z,97739.06
2023-01-05T18:23:32.927Z,97750.00
2023-01-05T18:26:42.618Z,97760.72
2023-01-05T18:29:49.041Z,97773.66
2023-01-05T18:32:56.558Z,97776.44
2023-01-05T18:36:09.959Z,97782.06
2023-01-05T18:39:16.972Z,97780.22
2023-01-05T18:42:26.767Z,97783.00
2023-01-05T18:45:39.119Z,97797.41
2023-01-05T18:48:45.850Z,97801.19
2023-01-05T18:51:55.256Z,97809.47
2023-01-05T18:55:01.480Z,97826.34
2023-01-05T18:58:11.527Z,97833.91
2023-01-05T19:01:22.376Z,97824.84
2023-01-05T19:04:29.731Z,97825.63
2023-01-05T19:07:35.854Z,97824.50
2023-01-05T19:10:43.656Z,97839.69
2023-01-05T19:13:54.400Z,97840.00
2023-01-05T19:17:01.312Z,97834.53
2023-01-05T19:20:09.095Z,97838.53
2023-01-05T19:23:16.114Z,97853.25
2023-01-05T19:26:23.737Z,97853.41
2023-01-05T19:29:33.302Z,97851.28
2023-01-05T19:32:39.795Z,97852.25
2023-01-05T19:35:46.914Z,97857.19
2023-01-05T19:38:53.294Z,97869.03
2023-01-05T19:42:00.228Z,97879.16
2023-01-05T19:45:12.051Z,97871.34
2023-01-05T19:48:19.045Z,97876.81
2023-01-05T19:51:28.661Z,97873.59
2023-01-05T19:54:35.978Z,97889.81
2023-01-05T19:57:42.105Z,97896.44
2023-01-05T20:00:52.983Z,97896.44
2023-01-05T20:04:00.289Z,97891.09
2023-01-05T20:07:10.356Z,97903.16
2023-01-05T20:10:16.537Z,97899.75
2023-01-05T20:13:23.413Z,97916.06
2023-01-05T20:16:32.143Z,97911.47
2023-01-05T20:19:41.258Z,97931.44
2023-01-05T20:22:47.355Z,97931.00
2023-01-05T20:25:54.367Z,97939.09
2023-01-05T20:29:03.170Z,97942.88
2023-01-05T20:32:18.826Z,97960.06
2023-01-05T20:35:24.854Z,97967.78
2023-01-05T20:38:32.409Z,97975.44
2023-01-05T20:41:42.354Z,97990.38
2023-01-05T20:44:51.071Z,98002.91
2023-01-05T20:47:59.784Z,98018.75
2023-01-05T20:51:08.816Z,98026.91
2023-01-05T20:54:16.522Z,98007.03
2023-01-05T20:57:25.475Z,98033.88
2023-01-05T21:01:10.391Z,98045.38
2023-01-05T21:04:25.763Z,98056.88
2023-01-05T21:07:33.851Z,98073.00
2023-01-05T21:10:43.758Z,98082.97
2023-01-05T21:13:54.498Z,98081.19
2023-01-05T21:17:01.388Z,98090.16
2023-01-05T21:20:11.262Z,98101.25
2023-01-05T21:23:18.513Z,98107.47
2023-01-05T21:26:26.594Z,98106.97
2023-01-05T21:29:33.570Z,98100.84
2023-01-05T21:32:39.758Z,98093.91
2023-01-05T21:35:57.447Z,98098.78
2023-01-05T21:39:08.478Z,98100.88
2023-01-05T21:42:27.794Z,98092.81
2023-01-05T21:45:34.920Z,98095.88
2023-01-05T21:48:42.519Z,98078.66
2023-01-05T21:52:03.790Z,98115.28
2023-01-05T21:55:25.482Z,98111.53
2023-01-05T21:58:31.656Z,98115.28
2023-01-05T22:01:42.078Z,98131.66
2023-01-05T22:04:48.676Z,98133.03
2023-01-05T22:07:58.185Z,98138.56
2023-01-05T22:11:05.926Z,98144.97
2023-01-05T22:14:13.515Z,98147.75
2023-01-05T22:17:19.766Z,98143.00
2023-01-05T22:20:26.715Z,98154.38
2023-01-05T22:23:36.321Z,98166.47
2023-01-05T22:26:43.490Z,98169.78
2023-01-05T22:29:49.579Z,98173.41
2023-01-05T22:32:56.628Z,98177.13
2023-01-05T22:36:03.867Z,98182.16
2023-01-05T22:39:13.400Z,98178.69
2023-01-05T22:42:19.414Z,98199.50
2023-01-05T22:45:26.266Z,98211.81
2023-01-05T22:48:35.695Z,98215.16
2023-01-05T22:51:44.993Z,98215.44
2023-01-05T22:54:53.684Z,98212.81
2023-01-05T22:58:00.656Z,98210.16
2023-01-05T23:01:12.790Z,98233.47
2023-01-05T23:04:19.906Z,98216.16
2023-01-05T23:07:25.980Z,98223.78
2023-01-05T23:10:35.667Z,98229.31
2023-01-05T23:13:43.524Z,98223.63
2023-01-05T23:16:50.644Z,98238.34
2023-01-05T23:19:56.769Z,98241.94
2023-01-05T23:23:12.775Z,98249.56
2023-01-05T23:26:21.607Z,98240.09
2023-01-05T23:29:28.575Z,98251.78
2023-01-05T23:32:35.186Z,98245.53
2023-01-05T23:35:42.137Z,98244.25
2023-01-05T23:38:49.889Z,98249.00
2023-01-05T23:41:59.407Z,98249.84
2023-01-05T23:45:05.502Z,98251.50
2023-01-05T23:48:13.477Z,98259.94
2023-01-05T23:51:20.064Z,98258.69
2023-01-05T23:54:26.908Z,98254.25
2023-01-05T23:57:36.156Z,98262.44
